Time;durP1;ratioP1;P1;durP2;ratioP2;P2;SDS_P1;SDS_P2;PMS_P1;PMS_P2;Temp;Humidity;BMP_temperature;BMP_pressure;BME280_temperature;BME280_humidity;BME280_pressure;Samples;Min_cycle;Max_cycle;Signal;HPM_P1;HPM_P2
2022/07/01 00:01:45;;;;;;;0.00;0.00;;;15.50;91.80;;;;;;5051112;28;20067;-68
2022/07/01 00:04:11;;;;;;;0.10;0.10;;;15.50;91.70;;;;;;5050648;28;20045;-68
2022/07/01 00:06:37;;;;;;;0.00;0.00;;;15.50;91.70;;;;;;5059388;28;20037;-67
2022/07/01 00:09:04;;;;;;;0.00;0.00;;;15.50;91.70;;;;;;5052058;28;20064;-67
2022/07/01 00:11:31;;;;;;;0.00;0.00;;;15.50;91.60;;;;;;5049642;28;20672;-67
2022/07/01 00:13:56;;;;;;;0.05;0.05;;;15.50;91.60;;;;;;5050566;28;20052;-68
2022/07/01 00:16:22;;;;;;;0.00;0.00;;;15.50;91.50;;;;;;5050495;28;20040;-68
2022/07/01 00:18:47;;;;;;;0.00;0.00;;;15.50;91.50;;;;;;5049910;28;20056;-67
2022/07/01 00:21:14;;;;;;;0.00;0.00;;;15.40;91.40;;;;;;5049765;28;20563;-67
2022/07/01 00:23:40;;;;;;;0.05;0.05;;;15.40;91.30;;;;;;5067646;28;20052;-68
2022/07/01 00:26:05;;;;;;;0.00;0.00;;;15.40;91.40;;;;;;5057390;28;20047;-67
2022/07/01 00:28:31;;;;;;;0.00;0.00;;;15.30;91.50;;;;;;5050278;28;20425;-67
2022/07/01 00:30:56;;;;;;;0.00;0.00;;;15.40;91.30;;;;;;5049831;28;20037;-67
2022/07/01 00:33:22;;;;;;;0.00;0.00;;;15.30;91.20;;;;;;5050079;28;20131;-66
2022/07/01 00:35:47;;;;;;;0.00;0.00;;;15.30;91.20;;;;;;5049431;28;20044;-67
2022/07/01 00:38:13;;;;;;;0.00;0.00;;;15.30;91.30;;;;;;5050447;28;20097;-68
2022/07/01 00:40:39;;;;;;;0.00;0.00;;;15.30;91.40;;;;;;5049971;28;20114;-67
2022/07/01 00:43:04;;;;;;;0.00;0.00;;;15.30;91.40;;;;;;5049715;28;20033;-67
2022/07/01 00:45:30;;;;;;;0.00;0.00;;;15.30;91.40;;;;;;5049589;28;20040;-67
2022/07/01 00:47:56;;;;;;;0.30;0.25;;;15.40;91.40;;;;;;5049025;28;20514;-67
2022/07/01 00:50:22;;;;;;;0.00;0.00;;;15.30;91.50;;;;;;5049573;28;20033;-68
2022/07/01 00:52:47;;;;;;;0.00;0.00;;;15.30;91.40;;;;;;5049661;28;20064;-67
2022/07/01 00:55:14;;;;;;;0.00;0.00;;;15.30;91.20;;;;;;5049508;28;20066;-68
2022/07/01 00:57:41;;;;;;;0.00;0.00;;;15.30;91.40;;;;;;5049792;28;20132;-67
2022/07/01 01:00:24;;;;;;;0.00;0.00;;;15.30;91.40;;;;;;5049073;28;20049;-68
2022/07/01 01:02:50;;;;;;;0.03;0.03;;;15.30;91.30;;;;;;5049302;28;20053;-67
2022/07/01 01:05:17;;;;;;;0.00;0.00;;;15.40;91.30;;;;;;5049391;28;20451;-68
2022/07/01 01:07:43;;;;;;;0.00;0.00;;;15.40;91.20;;;;;;5049767;28;20041;-67
2022/07/01 01:10:10;;;;;;;0.00;0.00;;;15.40;91.20;;;;;;5049137;28;20061;-67
2022/07/01 01:12:36;;;;;;;0.00;0.00;;;15.40;91.00;;;;;;5049724;28;20049;-68
2022/07/01 01:15:02;;;;;;;0.00;0.00;;;15.50;91.00;;;;;;5031503;28;20045;-68
2022/07/01 01:17:28;;;;;;;0.00;0.00;;;15.40;90.90;;;;;;5049162;28;20063;-68
2022/07/01 01:19:53;;;;;;;0.00;0.00;;;15.50;90.90;;;;;;5048664;28;20041;-67
2022/07/01 01:22:19;;;;;;;0.00;0.00;;;15.40;90.90;;;;;;5049343;28;20049;-68
2022/07/01 01:24:49;;;;;;;0.00;0.00;;;15.50;90.80;;;;;;5049386;28;20564;-67
2022/07/01 01:27:16;;;;;;;0.00;0.00;;;15.50;90.60;;;;;;5049160;28;20044;-68
2022/07/01 01:29:42;;;;;;;0.00;0.00;;;15.40;90.40;;;;;;5048930;28;20052;-68
2022/07/01 01:32:08;;;;;;;0.00;0.00;;;15.40;90.30;;;;;;5048744;28;20052;-68
2022/07/01 01:34:36;;;;;;;0.00;0.00;;;15.40;90.20;;;;;;5049382;28;20045;-68
2022/07/01 01:37:03;;;;;;;0.00;0.00;;;15.40;90.10;;;;;;5048902;28;20048;-68
2022/07/01 01:39:29;;;;;;;0.00;0.00;;;15.30;90.00;;;;;;5049018;28;20045;-68
2022/07/01 01:41:54;;;;;;;0.00;0.00;;;15.30;89.90;;;;;;5048731;28;20163;-69
2022/07/01 01:44:20;;;;;;;0.00;0.00;;;15.30;89.90;;;;;;5048763;28;20414;-68
2022/07/01 01:46:45;;;;;;;0.00;0.00;;;15.30;89.90;;;;;;5048296;28;20044;-69
2022/07/01 01:49:11;;;;;;;0.00;0.00;;;15.30;89.90;;;;;;5048835;28;20041;-68
2022/07/01 01:51:37;;;;;;;0.00;0.00;;;15.40;89.80;;;;;;5048739;28;20041;-68
2022/07/01 01:54:03;;;;;;;0.00;0.00;;;15.30;89.80;;;;;;5048679;28;20029;-68
2022/07/01 01:56:29;;;;;;;0.00;0.00;;;15.40;89.80;;;;;;5048763;28;20045;-68
2022/07/01 01:58:55;;;;;;;0.00;0.00;;;15.40;89.50;;;;;;5048607;28;20055;-69
2022/07/01 02:01:22;;;;;;;0.00;0.00;;;15.40;89.60;;;;;;5052030;28;20159;-68
2022/07/01 02:03:49;;;;;;;0.00;0.00;;;15.40;89.50;;;;;;5052992;28;20041;-69
2022/07/01 02:06:16;;;;;;;0.00;0.00;;;15.40;89.50;;;;;;5052894;28;20059;-68
2022/07/01 02:08:42;;;;;;;0.00;0.00;;;15.40;89.40;;;;;;5053053;28;20436;-68
2022/07/01 02:11:08;;;;;;;0.00;0.00;;;15.40;89.30;;;;;;5053233;28;20061;-68
2022/07/01 02:13:35;;;;;;;0.00;0.00;;;15.40;89.20;;;;;;5053037;28;20045;-68
2022/07/01 02:16:01;;;;;;;0.00;0.00;;;15.40;89.10;;;;;;5051731;28;20586;-68
2022/07/01 02:18:27;;;;;;;0.00;0.00;;;15.30;89.00;;;;;;5051370;28;20046;-68
2022/07/01 02:20:53;;;;;;;0.00;0.00;;;15.30;89.00;;;;;;5052532;28;20051;-68
2022/07/01 02:23:19;;;;;;;0.00;0.00;;;15.30;89.10;;;;;;5052615;28;20099;-68
2022/07/01 02:25:46;;;;;;;0.00;0.00;;;15.30;89.00;;;;;;5052599;28;20516;-68
2022/07/01 02:28:12;;;;;;;0.00;0.00;;;15.30;88.80;;;;;;5052443;28;20040;-68
2022/07/01 02:30:38;;;;;;;0.00;0.00;;;15.20;88.90;;;;;;5051793;28;20041;-68
2022/07/01 02:33:07;;;;;;;0.00;0.00;;;15.20;88.90;;;;;;5051803;28;20607;-68
2022/07/01 02:35:35;;;;;;;0.00;0.00;;;15.20;89.00;;;;;;5052541;28;20485;-68
2022/07/01 02:38:02;;;;;;;0.00;0.00;;;15.10;89.10;;;;;;5032684;28;20053;-69
2022/07/01 02:40:28;;;;;;;0.00;0.00;;;15.20;88.90;;;;;;5050670;28;20111;-69
2022/07/01 02:42:53;;;;;;;0.00;0.00;;;15.20;89.00;;;;;;5051972;28;20052;-68
2022/07/01 02:45:19;;;;;;;0.00;0.00;;;15.20;88.90;;;;;;5052128;28;20057;-70
2022/07/01 02:47:44;;;;;;;0.00;0.00;;;15.20;88.80;;;;;;5052030;28;20073;-69
2022/07/01 02:50:12;;;;;;;0.10;0.10;;;15.20;88.70;;;;;;5052405;28;20413;-68
2022/07/01 02:52:39;;;;;;;0.00;0.00;;;15.20;88.70;;;;;;5051493;28;20081;-69
2022/07/01 02:55:07;;;;;;;0.00;0.00;;;15.20;88.70;;;;;;5052166;28;20037;-68
2022/07/01 02:57:32;;;;;;;0.00;0.00;;;15.30;88.70;;;;;;5051952;28;20049;-68
2022/07/01 02:59:58;;;;;;;0.00;0.00;;;15.20;88.60;;;;;;5051214;28;20846;-69
2022/07/01 03:02:24;;;;;;;0.08;0.08;;;15.30;88.50;;;;;;5051407;28;20044;-68
2022/07/01 03:04:51;;;;;;;0.00;0.00;;;15.20;88.40;;;;;;5051929;28;20059;-69
2022/07/01 03:07:18;;;;;;;0.00;0.00;;;15.20;88.40;;;;;;5051921;28;20052;-68
2022/07/01 03:09:45;;;;;;;0.00;0.00;;;15.20;88.40;;;;;;5052094;28;20041;-68
2022/07/01 03:12:30;;;;;;;0.00;0.00;;;15.20;88.30;;;;;;5050857;28;20180;-69
2022/07/01 03:15:05;;;;;;;0.00;0.00;;;15.20;88.30;;;;;;5051777;28;20080;-69
2022/07/01 03:17:32;;;;;;;0.32;0.32;;;15.20;88.10;;;;;;5051699;28;20044;-69
2022/07/01 03:19:59;;;;;;;0.00;0.00;;;15.20;88.10;;;;;;5050922;28;20045;-69
2022/07/01 03:22:27;;;;;;;0.00;0.00;;;15.20;88.20;;;;;;5051599;28;20139;-69
2022/07/01 03:24:52;;;;;;;0.00;0.00;;;15.20;88.30;;;;;;5051115;28;20099;-69
2022/07/01 03:27:19;;;;;;;0.00;0.00;;;15.20;88.20;;;;;;5051230;28;20045;-69
2022/07/01 03:29:45;;;;;;;0.00;0.00;;;15.10;88.20;;;;;;5050981;28;20076;-68
2022/07/01 03:32:11;;;;;;;0.00;0.00;;;15.20;88.40;;;;;;5051607;28;20041;-68
2022/07/01 03:34:47;;;;;;;0.00;0.00;;;15.20;88.70;;;;;;5071550;28;20409;-68
2022/07/01 03:37:14;;;;;;;0.00;0.00;;;15.20;88.70;;;;;;5065475;28;20447;-69
2022/07/01 03:39:40;;;;;;;0.00;0.00;;;15.20;88.80;;;;;;5050842;28;20048;-68
2022/07/01 03:42:06;;;;;;;0.00;0.00;;;15.20;88.90;;;;;;5050669;28;20045;-68
2022/07/01 03:44:33;;;;;;;0.00;0.00;;;15.20;89.00;;;;;;5051084;28;20098;-68
2022/07/01 03:46:58;;;;;;;0.00;0.00;;;15.30;88.90;;;;;;5049679;28;20037;-68
2022/07/01 03:49:25;;;;;;;0.00;0.00;;;15.20;88.90;;;;;;5030930;28;20513;-68
2022/07/01 03:51:51;;;;;;;8.50;1.00;;;15.30;89.10;;;;;;5015230;28;20053;-69
2022/07/01 03:54:29;;;;;;;0.00;0.00;;;15.30;89.00;;;;;;5050853;28;20076;-68
2022/07/01 03:56:55;;;;;;;0.00;0.00;;;15.20;88.90;;;;;;5050992;28;20060;-68
2022/07/01 03:59:21;;;;;;;0.00;0.00;;;15.20;89.00;;;;;;5050241;28;20041;-68
2022/07/01 04:01:47;;;;;;;0.00;0.00;;;15.20;88.80;;;;;;5049795;28;20033;-68
2022/07/01 04:04:12;;;;;;;0.00;0.00;;;15.20;88.80;;;;;;5048117;28;20579;-68
2022/07/01 04:06:38;;;;;;;0.00;0.00;;;15.20;88.60;;;;;;5050091;28;20045;-68
2022/07/01 04:09:04;;;;;;;0.10;0.10;;;15.20;88.20;;;;;;5049715;28;20054;-68
2022/07/01 04:11:31;;;;;;;0.00;0.00;;;15.20;88.30;;;;;;5050026;28;20429;-68
2022/07/01 04:13:57;;;;;;;0.00;0.00;;;15.10;88.30;;;;;;5061320;28;20524;-68
2022/07/01 04:16:23;;;;;;;0.00;0.00;;;15.10;88.30;;;;;;5048391;28;20115;-69
2022/07/01 04:18:49;;;;;;;0.00;0.00;;;15.10;88.40;;;;;;5049495;28;20182;-68
2022/07/01 04:24:00;;;;;;;0.03;0.03;;;15.10;88.20;;;;;;5045929;28;20052;-69
2022/07/01 04:26:26;;;;;;;0.00;0.00;;;15.10;88.10;;;;;;5031956;28;20379;-69
2022/07/01 04:28:52;;;;;;;0.00;0.00;;;15.10;88.00;;;;;;5049263;28;20051;-69
2022/07/01 04:31:18;;;;;;;0.00;0.00;;;15.10;88.10;;;;;;5049249;28;20045;-70
2022/07/01 04:33:50;;;;;;;0.00;0.00;;;15.10;88.00;;;;;;5047395;28;20524;-69
2022/07/01 04:36:17;;;;;;;0.00;0.00;;;15.10;88.00;;;;;;5029184;28;20049;-70
2022/07/01 04:38:42;;;;;;;0.00;0.00;;;15.10;88.00;;;;;;5038839;28;20099;-70
2022/07/01 04:43:52;;;;;;;0.00;0.00;;;15.10;88.00;;;;;;5063766;28;20494;-69
2022/07/01 04:46:18;;;;;;;0.10;0.10;;;15.10;88.20;;;;;;5048953;28;20039;-69
2022/07/01 04:48:43;;;;;;;0.00;0.00;;;15.20;88.30;;;;;;5047386;28;21438;-70
2022/07/01 04:51:09;;;;;;;0.05;0.05;;;15.20;88.40;;;;;;5036638;28;20509;-69
2022/07/01 04:53:35;;;;;;;0.20;0.20;;;15.20;88.50;;;;;;5048408;28;20053;-69
2022/07/01 04:56:01;;;;;;;0.00;0.00;;;15.20;88.60;;;;;;5048992;28;20048;-70
2022/07/01 04:58:26;;;;;;;0.00;0.00;;;15.30;88.50;;;;;;5049148;28;20478;-69
2022/07/01 05:00:52;;;;;;;0.00;0.00;;;15.20;88.50;;;;;;5048959;28;20072;-68
2022/07/01 05:03:18;;;;;;;0.00;0.00;;;15.30;88.30;;;;;;5036365;28;20119;-69
2022/07/01 05:05:44;;;;;;;0.00;0.00;;;15.30;88.20;;;;;;5014758;28;20077;-69
2022/07/01 05:08:10;;;;;;;0.00;0.00;;;15.20;88.40;;;;;;5042394;28;20080;-69
2022/07/01 05:10:36;;;;;;;0.00;0.00;;;15.30;88.40;;;;;;5047793;28;20471;-69
2022/07/01 05:13:02;;;;;;;0.00;0.00;;;15.40;88.30;;;;;;5048269;28;20056;-69
2022/07/01 05:15:28;;;;;;;0.00;0.00;;;15.50;88.30;;;;;;5047052;28;20032;-69
2022/07/01 05:23:38;;;;;;;0.00;0.00;;;15.60;88.30;;;;;;5005892;28;20128;-68
2022/07/01 05:26:04;;;;;;;0.03;0.03;;;15.70;88.30;;;;;;5038601;28;20155;-68
2022/07/01 05:28:30;;;;;;;0.15;0.15;;;15.70;88.40;;;;;;5048180;28;20663;-68
2022/07/01 05:30:56;;;;;;;0.00;0.00;;;15.70;88.50;;;;;;5047852;28;20045;-68
2022/07/01 05:33:26;;;;;;;0.00;0.00;;;15.70;88.40;;;;;;5047448;28;20064;-68
2022/07/01 05:35:54;;;;;;;0.00;0.00;;;15.80;88.30;;;;;;5046929;28;20049;-68
2022/07/01 05:38:21;;;;;;;0.00;0.00;;;15.80;88.20;;;;;;5048301;28;20068;-67
2022/07/01 05:40:46;;;;;;;0.05;0.05;;;15.90;88.10;;;;;;5048120;28;20051;-68
2022/07/01 05:43:12;;;;;;;0.00;0.00;;;15.90;88.00;;;;;;5047987;28;20049;-68
2022/07/01 05:45:37;;;;;;;0.00;0.00;;;15.90;88.00;;;;;;5047361;28;20056;-67
2022/07/01 05:48:03;;;;;;;0.00;0.00;;;16.00;88.10;;;;;;5048296;28;20857;-67
2022/07/01 05:50:29;;;;;;;0.00;0.00;;;16.00;88.10;;;;;;5047451;28;20199;-67
2022/07/01 05:52:54;;;;;;;0.15;0.10;;;16.00;87.90;;;;;;5048149;28;20159;-67
2022/07/01 05:55:20;;;;;;;0.00;0.00;;;16.00;87.70;;;;;;5048053;28;20382;-68
2022/07/01 05:57:46;;;;;;;0.00;0.00;;;16.00;87.70;;;;;;5048291;28;20055;-68
2022/07/01 06:00:12;;;;;;;0.00;0.00;;;16.00;87.60;;;;;;5048311;28;20128;-71
2022/07/01 06:02:37;;;;;;;0.00;0.00;;;16.10;88.60;;;;;;5048476;28;20416;-67
2022/07/01 06:05:04;;;;;;;0.00;0.00;;;16.30;87.60;;;;;;5047136;28;20049;-68
2022/07/01 06:07:29;;;;;;;0.00;0.00;;;16.30;86.80;;;;;;5048051;28;20611;-67
2022/07/01 06:09:56;;;;;;;0.00;0.00;;;16.30;86.70;;;;;;5047267;28;20091;-68
2022/07/01 06:12:22;;;;;;;0.00;0.00;;;16.30;86.60;;;;;;5047551;28;20053;-67
2022/07/01 06:14:47;;;;;;;0.00;0.00;;;16.30;86.50;;;;;;5055627;28;20025;-68
2022/07/01 06:17:13;;;;;;;0.68;0.68;;;16.20;86.20;;;;;;5053089;28;20037;-68
2022/07/01 06:19:39;;;;;;;0.00;0.00;;;16.40;86.70;;;;;;5033139;28;21474;-68
2022/07/01 06:22:05;;;;;;;0.00;0.00;;;16.40;86.20;;;;;;5057457;28;20052;-67
2022/07/01 06:24:31;;;;;;;0.65;0.63;;;16.40;86.00;;;;;;5048800;28;20605;-67
2022/07/01 06:26:57;;;;;;;0.00;0.00;;;16.30;85.10;;;;;;5043331;28;20152;-68
2022/07/01 06:29:22;;;;;;;0.75;0.75;;;16.30;85.00;;;;;;5053247;28;20041;-67
2022/07/01 06:31:48;;;;;;;0.00;0.00;;;16.20;84.80;;;;;;5047837;28;20032;-68
2022/07/01 06:34:13;;;;;;;0.00;0.00;;;16.20;84.70;;;;;;5047969;28;20040;-68
2022/07/01 06:36:39;;;;;;;0.38;0.20;;;16.20;84.80;;;;;;5051134;28;20124;-67
2022/07/01 06:39:05;;;;;;;0.15;0.15;;;16.20;85.00;;;;;;5048169;28;20402;-68
2022/07/01 06:41:31;;;;;;;0.00;0.00;;;16.20;85.40;;;;;;5051720;28;20493;-67
2022/07/01 06:44:01;;;;;;;0.00;0.00;;;16.20;85.30;;;;;;5049149;28;20657;-74
2022/07/01 06:46:29;;;;;;;0.00;0.00;;;16.30;85.50;;;;;;5055756;28;20037;-67
2022/07/01 06:48:55;;;;;;;3.25;2.00;;;16.30;85.70;;;;;;5059810;28;20072;-67
2022/07/01 06:51:21;;;;;;;0.00;0.00;;;16.40;85.80;;;;;;5072112;28;20102;-67
2022/07/01 06:53:47;;;;;;;0.00;0.00;;;16.40;85.60;;;;;;5071684;28;20033;-68
2022/07/01 06:56:13;;;;;;;0.00;0.00;;;16.50;85.60;;;;;;5071155;28;20378;-68
2022/07/01 06:58:40;;;;;;;0.00;0.00;;;16.50;85.60;;;;;;5052525;28;20478;-67
2022/07/01 07:01:05;;;;;;;0.15;0.15;;;16.40;85.80;;;;;;5068428;28;20048;-67
2022/07/01 07:03:32;;;;;;;0.00;0.00;;;16.50;85.70;;;;;;5070202;28;20687;-67
2022/07/01 07:06:01;;;;;;;0.00;0.00;;;16.60;85.70;;;;;;5061172;28;20165;-68
2022/07/01 07:08:28;;;;;;;21.65;0.90;;;16.60;85.50;;;;;;5071718;28;20076;-67
2022/07/01 07:10:54;;;;;;;0.00;0.00;;;16.60;85.20;;;;;;5071974;28;20048;-67
2022/07/01 07:13:20;;;;;;;0.05;0.05;;;16.70;85.10;;;;;;5064723;28;20052;-67
2022/07/01 07:15:45;;;;;;;0.00;0.00;;;16.80;84.90;;;;;;5051476;28;20041;-67
2022/07/01 07:18:11;;;;;;;0.00;0.00;;;16.80;84.90;;;;;;5052268;28;20037;-67
2022/07/01 07:20:37;;;;;;;0.00;0.00;;;16.90;84.50;;;;;;5060347;28;20048;-67
2022/07/01 07:23:03;;;;;;;0.00;0.00;;;16.90;84.10;;;;;;5071568;28;20408;-67
2022/07/01 07:25:28;;;;;;;0.00;0.00;;;17.00;84.10;;;;;;5056712;28;20040;-68
2022/07/01 07:27:54;;;;;;;0.05;0.05;;;17.00;84.10;;;;;;5049779;28;20375;-68
2022/07/01 07:30:20;;;;;;;0.00;0.00;;;17.10;84.40;;;;;;5033212;28;20367;-67
2022/07/01 07:32:46;;;;;;;0.00;0.00;;;17.20;84.50;;;;;;5055370;28;20059;-68
2022/07/01 07:35:12;;;;;;;0.00;0.00;;;17.30;84.20;;;;;;5051222;28;20142;-68
2022/07/01 07:37:41;;;;;;;0.00;0.00;;;17.30;83.70;;;;;;5050351;28;20057;-68
2022/07/01 07:40:12;;;;;;;0.00;0.00;;;17.40;83.40;;;;;;5066318;28;20090;-68
2022/07/01 07:42:39;;;;;;;0.00;0.00;;;17.40;83.20;;;;;;5062727;28;20037;-68
2022/07/01 07:45:09;;;;;;;0.00;0.00;;;17.50;83.30;;;;;;5046615;28;20659;-68
2022/07/01 07:47:35;;;;;;;0.00;0.00;;;17.50;81.80;;;;;;5050642;28;20514;-68
2022/07/01 07:50:01;;;;;;;0.00;0.00;;;17.60;82.30;;;;;;5066679;28;20079;-68
2022/07/01 07:52:26;;;;;;;0.00;0.00;;;17.60;82.00;;;;;;5057508;28;20033;-68
2022/07/01 07:54:52;;;;;;;0.00;0.00;;;17.70;81.60;;;;;;5069247;28;20040;-67
2022/07/01 07:57:18;;;;;;;0.00;0.00;;;17.90;82.00;;;;;;5068781;28;20049;-68
2022/07/01 07:59:43;;;;;;;0.00;0.00;;;18.00;81.80;;;;;;5069549;28;20375;-68
2022/07/01 08:02:09;;;;;;;0.00;0.00;;;18.10;80.10;;;;;;5044626;28;20099;-68
2022/07/01 08:04:35;;;;;;;0.00;0.00;;;18.10;80.20;;;;;;5051852;28;20037;-68
2022/07/01 08:07:00;;;;;;;0.00;0.00;;;18.20;80.20;;;;;;5049744;28;20036;-69
2022/07/01 08:09:26;;;;;;;0.00;0.00;;;18.10;78.10;;;;;;5049959;28;20568;-67
2022/07/01 08:11:52;;;;;;;0.00;0.00;;;18.10;77.70;;;;;;5052566;28;20107;-68
2022/07/01 08:14:18;;;;;;;0.15;0.15;;;18.00;76.80;;;;;;5044817;28;20513;-68
2022/07/01 08:16:43;;;;;;;0.00;0.00;;;17.90;77.20;;;;;;5043975;28;20033;-68
2022/07/01 08:19:09;;;;;;;0.43;0.38;;;17.90;77.70;;;;;;5049577;28;20052;-67
2022/07/01 08:21:35;;;;;;;0.00;0.00;;;18.00;78.00;;;;;;5051844;28;20082;-68
2022/07/01 08:24:00;;;;;;;7.78;1.45;;;18.00;78.20;;;;;;5060973;28;20048;-67
2022/07/01 08:26:27;;;;;;;0.00;0.00;;;18.00;78.30;;;;;;5048946;28;20045;-67
2022/07/01 08:28:53;;;;;;;0.00;0.00;;;18.00;77.60;;;;;;5037186;28;20045;-68
2022/07/01 08:31:18;;;;;;;0.00;0.00;;;18.00;77.10;;;;;;5045751;28;20458;-68
2022/07/01 08:33:44;;;;;;;0.00;0.00;;;18.00;78.00;;;;;;5060627;28;20044;-68
2022/07/01 08:36:10;;;;;;;0.15;0.15;;;18.10;78.50;;;;;;5051118;28;20045;-68
2022/07/01 08:38:36;;;;;;;0.00;0.00;;;18.10;78.50;;;;;;5049549;28;20041;-68
2022/07/01 08:41:04;;;;;;;0.00;0.00;;;18.10;78.30;;;;;;5049584;28;20041;-68
2022/07/01 08:43:30;;;;;;;0.00;0.00;;;18.10;77.10;;;;;;5065397;28;20516;-68
2022/07/01 08:45:58;;;;;;;0.00;0.00;;;18.10;75.60;;;;;;5069283;28;20421;-68
2022/07/01 08:48:24;;;;;;;0.00;0.00;;;18.10;75.60;;;;;;5054023;28;20124;-68
2022/07/01 08:50:49;;;;;;;0.00;0.00;;;18.30;77.00;;;;;;5049183;28;20128;-68
2022/07/01 08:53:15;;;;;;;0.77;0.77;;;18.30;77.30;;;;;;5053769;28;20126;-68
2022/07/01 08:58:27;;;;;;;0.00;0.00;;;18.50;77.20;;;;;;5046538;28;20080;-68
2022/07/01 09:00:53;;;;;;;0.00;0.00;;;18.60;75.70;;;;;;5068438;28;20052;-68
2022/07/01 09:03:22;;;;;;;0.00;0.00;;;18.60;73.10;;;;;;5051041;28;20051;-67
2022/07/01 09:05:52;;;;;;;0.00;0.00;;;18.60;74.40;;;;;;5049038;28;20037;-68
2022/07/01 09:08:18;;;;;;;0.00;0.00;;;18.70;75.80;;;;;;5049126;28;20048;-68
2022/07/01 09:10:44;;;;;;;0.00;0.00;;;18.70;75.20;;;;;;5048964;28;20056;-67
2022/07/01 09:13:12;;;;;;;0.00;0.00;;;18.70;74.90;;;;;;5048367;28;20061;-67
2022/07/01 09:15:41;;;;;;;0.00;0.00;;;18.70;74.60;;;;;;5065407;28;20060;-67
2022/07/01 09:18:15;;;;;;;0.00;0.00;;;18.70;73.80;;;;;;5068872;28;20137;-69
2022/07/01 09:20:43;;;;;;;0.00;0.00;;;18.70;73.70;;;;;;5057199;28;20094;-67
2022/07/01 09:23:14;;;;;;;0.00;0.00;;;18.60;73.90;;;;;;5046555;28;20442;-67
2022/07/01 09:25:45;;;;;;;0.00;0.00;;;18.50;71.40;;;;;;5033279;28;20041;-67
2022/07/01 09:28:21;;;;;;;0.00;0.00;;;18.50;73.20;;;;;;5054237;28;20044;-67
2022/07/01 09:30:52;;;;;;;0.00;0.00;;;18.40;72.40;;;;;;5048489;28;20083;-68
2022/07/01 09:33:21;;;;;;;0.00;0.00;;;18.30;73.10;;;;;;5056895;28;20055;-67
2022/07/01 09:35:50;;;;;;;0.00;0.00;;;18.30;72.70;;;;;;5048094;28;20119;-67
2022/07/01 09:38:18;;;;;;;0.00;0.00;;;18.10;74.50;;;;;;5058513;28;20047;-67
2022/07/01 09:40:56;;;;;;;0.00;0.00;;;17.90;75.90;;;;;;5051685;28;20052;-68
2022/07/01 09:43:30;;;;;;;0.00;0.00;;;17.60;77.80;;;;;;5048546;28;20036;-68
2022/07/01 09:46:03;;;;;;;0.00;0.00;;;17.30;78.70;;;;;;5048232;28;20049;-67
2022/07/01 09:48:32;;;;;;;0.00;0.00;;;17.10;79.20;;;;;;5048361;28;20099;-68
2022/07/01 09:50:58;;;;;;;0.00;0.00;;;17.10;79.50;;;;;;5047801;28;20155;-67
2022/07/01 09:53:24;;;;;;;0.00;0.00;;;17.00;80.50;;;;;;5051912;28;20060;-68
2022/07/01 09:55:50;;;;;;;0.10;0.10;;;16.90;80.60;;;;;;5043826;28;20132;-68
2022/07/01 09:58:15;;;;;;;0.00;0.00;;;16.90;80.90;;;;;;5040517;28;20045;-68
2022/07/01 10:00:42;;;;;;;0.00;0.00;;;17.00;81.00;;;;;;5048321;28;20052;-68
2022/07/01 10:03:08;;;;;;;0.10;0.10;;;17.10;81.00;;;;;;5034716;28;20049;-66
2022/07/01 10:05:43;;;;;;;0.00;0.00;;;17.30;81.50;;;;;;5048115;28;20124;-65
2022/07/01 10:08:20;;;;;;;0.00;0.00;;;17.40;81.50;;;;;;5056080;28;20051;-66
2022/07/01 10:11:33;;;;;;;0.00;0.00;;;17.60;81.90;;;;;;5047717;28;20884;-66
2022/07/01 10:13:59;;;;;;;0.00;0.00;;;17.70;81.20;;;;;;5048042;28;20422;-66
2022/07/01 10:16:25;;;;;;;0.00;0.00;;;17.90;81.50;;;;;;5048107;28;20087;-66
2022/07/01 10:18:51;;;;;;;0.00;0.00;;;18.00;81.00;;;;;;5049884;28;20444;-66
2022/07/01 10:21:30;;;;;;;0.00;0.00;;;18.10;80.70;;;;;;5048855;28;20049;-66
2022/07/01 10:24:15;;;;;;;0.00;0.00;;;18.20;81.20;;;;;;5056190;28;20154;-66
2022/07/01 10:26:42;;;;;;;0.00;0.00;;;18.20;81.20;;;;;;5052421;28;20183;-66
2022/07/01 10:29:27;;;;;;;0.00;0.00;;;18.30;81.00;;;;;;5051382;28;20048;-66
2022/07/01 10:31:54;;;;;;;0.00;0.00;;;18.30;80.60;;;;;;5038405;28;20037;-67
2022/07/01 10:34:22;;;;;;;0.00;0.00;;;18.30;80.20;;;;;;5051809;28;20691;-67
2022/07/01 10:37:01;;;;;;;0.00;0.00;;;18.30;80.00;;;;;;5059761;28;20055;-66
2022/07/01 10:39:27;;;;;;;0.00;0.00;;;18.40;78.50;;;;;;5051897;28;20044;-70
2022/07/01 10:41:52;;;;;;;0.00;0.00;;;18.30;78.00;;;;;;5051491;28;20052;-67
2022/07/01 10:44:19;;;;;;;0.00;0.00;;;18.30;77.60;;;;;;5046562;28;20090;-66
2022/07/01 10:46:56;;;;;;;0.00;0.00;;;18.50;78.50;;;;;;5043901;28;20112;-67
2022/07/01 10:49:37;;;;;;;0.30;0.30;;;18.50;77.50;;;;;;5056026;28;20132;-67
2022/07/01 10:52:06;;;;;;;0.00;0.00;;;18.20;75.10;;;;;;5051305;28;20048;-66
2022/07/01 10:54:35;;;;;;;0.00;0.00;;;18.20;75.70;;;;;;5050521;28;20405;-67
2022/07/01 10:57:19;;;;;;;0.00;0.00;;;18.10;76.40;;;;;;5051346;28;20037;-67
2022/07/01 10:59:52;;;;;;;0.00;0.00;;;18.10;76.10;;;;;;5050916;28;20707;-67
2022/07/01 11:02:24;;;;;;;0.00;0.00;;;18.10;76.00;;;;;;5051425;28;20088;-67
2022/07/01 11:04:54;;;;;;;0.00;0.00;;;18.10;75.30;;;;;;5051343;28;20087;-67
2022/07/01 11:07:23;;;;;;;0.00;0.00;;;18.40;75.20;;;;;;5051761;28;20095;-67
2022/07/01 11:09:48;;;;;;;0.00;0.00;;;18.50;73.30;;;;;;5050739;28;20608;-67
2022/07/01 11:12:20;;;;;;;0.10;0.10;;;18.60;72.20;;;;;;5051226;28;20083;-67
2022/07/01 11:14:45;;;;;;;0.00;0.00;;;18.80;73.90;;;;;;5047141;28;20044;-68
2022/07/01 11:17:11;;;;;;;0.00;0.00;;;18.90;71.10;;;;;;5050924;28;20037;-67
2022/07/01 11:19:37;;;;;;;0.00;0.00;;;18.90;70.20;;;;;;5047019;28;20048;-67
2022/07/01 11:22:05;;;;;;;0.00;0.00;;;19.00;71.50;;;;;;5051066;28;20049;-68
2022/07/01 11:24:30;;;;;;;0.00;0.00;;;19.00;71.20;;;;;;5050259;28;20037;-67
2022/07/01 11:27:16;;;;;;;0.00;0.00;;;19.10;70.90;;;;;;5050998;28;20063;-67
2022/07/01 11:29:42;;;;;;;0.00;0.00;;;19.00;69.60;;;;;;5042885;28;20060;-68
2022/07/01 11:32:07;;;;;;;0.00;0.00;;;19.00;69.70;;;;;;5049536;28;20406;-68
2022/07/01 11:34:36;;;;;;;0.00;0.00;;;19.10;70.40;;;;;;5050046;28;20037;-74
2022/07/01 11:40:07;;;;;;;0.00;0.00;;;19.30;69.20;;;;;;5042931;28;20059;-69
2022/07/01 11:42:33;;;;;;;0.00;0.00;;;19.20;68.60;;;;;;5051004;28;20052;-69
2022/07/01 11:44:59;;;;;;;0.00;0.00;;;19.20;67.20;;;;;;5031366;28;20045;-69
2022/07/01 11:47:25;;;;;;;0.00;0.00;;;19.30;67.20;;;;;;5050924;28;20056;-68
2022/07/01 11:49:52;;;;;;;0.00;0.00;;;19.20;67.40;;;;;;5050347;28;20405;-67
2022/07/01 11:52:19;;;;;;;0.00;0.00;;;19.40;66.90;;;;;;5050637;28;20096;-67
2022/07/01 11:54:51;;;;;;;0.00;0.00;;;19.50;66.40;;;;;;5051175;28;20095;-66
2022/07/01 11:57:17;;;;;;;;;;;19.60;63.60;;;;;;5053655;28;20619;-66
2022/07/01 11:59:45;;;;;;;0.00;0.00;;;19.60;63.30;;;;;;5070858;28;19931;-67
2022/07/01 12:02:12;;;;;;;0.00;0.00;;;19.50;63.20;;;;;;5071075;28;20056;-66
2022/07/01 12:04:38;;;;;;;0.00;0.00;;;19.50;65.00;;;;;;5071111;28;20075;-67
2022/07/01 12:07:05;;;;;;;0.00;0.00;;;19.70;65.00;;;;;;5070288;28;20046;-67
2022/07/01 12:09:31;;;;;;;0.00;0.00;;;19.80;62.80;;;;;;5049546;28;20087;-69
2022/07/01 12:11:57;;;;;;;0.00;0.00;;;19.90;61.60;;;;;;5049668;28;20049;-68
2022/07/01 12:14:29;;;;;;;0.00;0.00;;;19.90;63.10;;;;;;5050637;28;20131;-68
2022/07/01 12:16:57;;;;;;;0.00;0.00;;;20.00;63.80;;;;;;5049127;28;20136;-68
2022/07/01 12:19:43;;;;;;;0.00;0.00;;;20.10;62.60;;;;;;5048793;28;20138;-68
2022/07/01 12:22:11;;;;;;;0.00;0.00;;;20.10;61.80;;;;;;5045546;28;20081;-69
2022/07/01 12:24:37;;;;;;;0.00;0.00;;;20.30;62.10;;;;;;5037543;28;20038;-69
2022/07/01 12:27:06;;;;;;;0.00;0.00;;;20.40;61.90;;;;;;5045162;28;20052;-69
2022/07/01 12:29:51;;;;;;;0.00;0.00;;;20.50;60.50;;;;;;5048775;28;20041;-67
2022/07/01 12:32:26;;;;;;;0.00;0.00;;;20.70;60.80;;;;;;5037542;28;20070;-66
2022/07/01 12:35:00;;;;;;;0.00;0.00;;;20.70;58.90;;;;;;5038333;28;20495;-66
2022/07/01 12:37:36;;;;;;;0.00;0.00;;;20.60;58.00;;;;;;5037486;28;20049;-67
2022/07/01 12:40:03;;;;;;;0.00;0.00;;;20.30;59.80;;;;;;5044830;28;20128;-66
2022/07/01 12:42:51;;;;;;;0.00;0.00;;;20.00;62.20;;;;;;5039011;28;20142;-66
2022/07/01 12:45:23;;;;;;;0.00;0.00;;;19.80;64.40;;;;;;5035686;28;20076;-66
2022/07/01 12:47:50;;;;;;;0.00;0.00;;;19.20;66.30;;;;;;5045525;28;20098;-66
2022/07/01 12:50:23;;;;;;;0.00;0.00;;;19.00;67.90;;;;;;5033903;28;20049;-68
2022/07/01 12:53:01;;;;;;;0.00;0.00;;;18.70;69.30;;;;;;5048388;28;20212;-66
2022/07/01 12:55:28;;;;;;;0.00;0.00;;;18.70;69.90;;;;;;5049598;28;20044;-67
2022/07/01 12:57:55;;;;;;;0.00;0.00;;;18.60;70.60;;;;;;5049384;28;20045;-67
2022/07/01 13:00:23;;;;;;;0.00;0.00;;;18.80;71.30;;;;;;5049354;28;20056;-67
2022/07/01 13:02:51;;;;;;;0.00;0.00;;;19.10;70.90;;;;;;5043633;28;20041;-67
2022/07/01 13:05:17;;;;;;;0.00;0.00;;;19.50;69.50;;;;;;5029786;28;20514;-67
2022/07/01 13:07:43;;;;;;;0.00;0.00;;;19.90;68.10;;;;;;5036681;28;20041;-67